Airfield :
LOGIN :

Register | Disclaimer

   EN    FR    IT 

 










Legend :    VFR   Marginal VFR   IFR   Intensive IFR   Very Intensive IFR
Visi :
Ceiling :
>= 8 km
>= 3000ft
5 to 8 km
1000 to 3000 ft
1500m to 5 km
500 to 1000 ft
800 to 1500m
200 to 500 ft
< 800m
< 200 ft
Symbols :   Thunderstorms  Fog  Heavy snow  Heavy precipitations  Wind > 20 kt
SIGMETs :     Misc.  Thunderstorms  Icing  Turbulence  Mountain Waves  Volcanic Ashes







- Airport Elevation : 106 ft
- IATA code : NRN


EDLV - Weeze

CURRENT METAR :
  • 160720Z 14007KT 5000 BR BKN006 M00/M01 Q1010

EXPIRED METARs :
  • 160650Z 15008KT 5000 -FZDZ BKN008 M00/M01 Q1009
  • 160620Z 16008KT 130V210 4300 -FZDZ BKN008 M00/M01 Q1009
  • 160550Z 15009KT 7000 -FZDZ BKN007 M00/M02 Q1009
  • 160520Z 14010KT 7000 BKN008 M00/M02 Q1009
  • 160450Z 15009KT 6000 -SNRA BKN009 M00/M01 Q1010

TAF TAF EDLV
Valid from the 16 at 06:00 until the 17 at 06:00 UTC


160500Z 1606/1706 14010KT 6000 BKN010
TEMPO 1606/1612 3000 -SNRA BR BKN005
PROB30
TEMPO 1606/1610 2000 -FZDZ
BECMG 1612/1615 20005KT
TEMPO 1612/1624 4000 BR BKN005
BECMG 1700/1703 BKN015
TEMPO 1703/1706 4000 BR BKN010
No reported NOTAMs for that airfield.
4 SIGMETs reported for the Langen FIR (EDGG) :
 
Severe icing
EDGG SIGMET 9 VALID 160730/161000 EDZF
EDGG LANGEN FIR SEV ICE FCST NE OF LINE N5215 E00715 - N4830 E00930 FL100/140 MOV NE 10KT NC=
Severe icing with freezing rain
EDGG SIGMET 8 VALID 160705/160900 EDZF
EDGG LANGEN FIR SEV ICE (FZRA) FCST W OF LINE N5215 E00730 - N4750 E00930 SFC/FL080 MOV E NC=
SIGMET 6  cancelation
EDGG SIGMET 7 VALID 160704/160900 EDZF
EDGG LANGEN FIR CNL SIGMET 6 160700/160900=
SIGMET 6  CANCELED :
Severe icing with freezing rain
EDGG SIGMET 6 VALID 160700/160900 EDZF
EDGG LANGEN FIR SEV ICE (FZRA) FCST W OF LINE N5215 E00730 - N4750 E00930 TOP FL080 MOV E NC=



MET'MAP, your aeronautical weather chart ! - Copyright ORBIFLY December 2007 - Disclaimer

ORBIFLY MET'MAP TEAM :

Programming & Development : Alexandra Zaïnal
Concept & Development : Baudouin d'Aumeries
Co-Development & Prog : Marc-Olivier Méhu
Technical & hardware support : Manuel Goepfert

Contact : metmap@orbifly.com




SOURCES & CREDITS :

   NOAA